| time (UTC) | temp C | wind direction | speed KPH | gust KPH | rain 1hr cm | rain 24hr cm | rain mn cm | humidity % | barometer mb |
| 20260508191532 | 21 | 333 | 17.7 | 37.0 | 0.00 | 0.00 | 0.00 | 28 | 1009.4 |
| 20260508190039 | 21 | 292 | 24.1 | 41.8 | 0.00 | 0.00 | 0.00 | 30 | 1009.7 |
| 20260508184530 | 20 | 288 | 25.7 | 38.6 | 0.00 | 0.00 | 0.00 | 29 | 1010.0 |
| 20260508183036 | 20 | 262 | 16.1 | 35.4 | 0.00 | 0.00 | 0.00 | 32 | 1010.1 |
| 20260508181551 | 20 | 265 | 17.7 | 41.8 | 0.00 | 0.00 | 0.00 | 32 | 1010.4 |
| 20260508180032 | 20 | 281 | 19.3 | 33.8 | 0.00 | 0.00 | 0.00 | 34 | 1010.5 |
| 20260508174531 | 19 | 272 | 20.9 | 30.6 | 0.00 | 0.00 | 0.00 | 36 | 1010.6 |
| 20260508173028 | 18 | 290 | 17.7 | 27.4 | 0.00 | 0.00 | 0.00 | 39 | 1010.7 |
| 20260508171529 | 18 | 244 | 14.5 | 24.1 | 0.00 | 0.00 | 0.00 | 42 | 1011.1 |
| 20260508170030 | 17 | 252 | 11.3 | 29.0 | 0.00 | 0.00 | 0.00 | 47 | 1011.2 |
| 20260508164538 | 16 | 261 | 16.1 | 27.4 | 0.00 | 0.00 | 0.00 | 49 | 1011.3 |
| 20260508163031 | 16 | 242 | 17.7 | 27.4 | 0.00 | 0.00 | 0.00 | 52 | 1011.4 |
| 20260508161528 | 16 | 254 | 17.7 | 27.4 | 0.00 | 0.00 | 0.00 | 54 | 1011.5 |
| 20260508160037 | 16 | 249 | 14.5 | 24.1 | 0.00 | 0.00 | 0.00 | 55 | 1011.7 |
| 20260508154530 | 15 | 215 | 14.5 | 25.7 | 0.00 | 0.00 | 0.00 | 56 | 1011.9 |
| 20260508153029 | 14 | 221 | 12.9 | 20.9 | 0.00 | 0.00 | 0.00 | 58 | 1012.0 |
| 20260508151529 | 13 | 238 | 12.9 | 20.9 | 0.00 | 0.00 | 0.00 | 63 | 1012.0 |
| 20260508150032 | 12 | 235 | 14.5 | 22.5 | 0.00 | 0.00 | 0.00 | 66 | 1012.3 |
| 20260508144531 | 11 | 245 | 16.1 | 25.7 | 0.00 | 0.00 | 0.00 | 68 | 1012.5 |
| 20260508143032 | 10 | 222 | 17.7 | 25.7 | 0.00 | 0.00 | 0.00 | 68 | 1012.4 |
| 20260508141545 | 10 | 241 | 16.1 | 27.4 | 0.00 | 0.00 | 0.00 | 68 | 1012.4 |
| 20260508140028 | 10 | 244 | 14.5 | 22.5 | 0.00 | 0.00 | 0.00 | 66 | 1012.5 |
| 20260508134528 | 11 | 260 | 9.7 | 14.5 | 0.00 | 0.00 | 0.00 | 66 | 1012.7 |
| 20260508133032 | 11 | 271 | 3.2 | 11.3 | 0.00 | 0.00 | 0.00 | 68 | 1012.5 |
| 20260508131530 | 9 | 265 | 8.0 | 11.3 | 0.00 | 0.00 | 0.00 | 70 | 1012.6 |
| 20260508130030 | 7 | 251 | 3.2 | 8.0 | 0.00 | 0.00 | 0.00 | 72 | 1012.6 |
| 20260508124528 | 7 | 328 | 1.6 | 6.4 | 0.00 | 0.00 | 0.00 | 71 | 1012.5 |
| 20260508123030 | 7 | 360 | 4.8 | 8.0 | 0.00 | 0.00 | 0.00 | 72 | 1012.4 |
| 20260508121530 | 7 | 293 | 6.4 | 11.3 | 0.00 | 0.00 | 0.00 | 71 | 1012.5 |
| 20260508120037 | 7 | 304 | 6.4 | 8.0 | 0.00 | 0.00 | 0.00 | 69 | 1012.5 |
| 20260508114529 | 8 | 294 | 6.4 | 9.7 | 0.00 | 0.00 | 0.00 | 67 | 1012.5 |
| 20260508113029 | 8 | 301 | 8.0 | 11.3 | 0.00 | 0.00 | 0.00 | 67 | 1012.6 |
| 20260508111539 | 8 | 325 | 4.8 | 9.7 | 0.00 | 0.00 | 0.00 | 66 | 1012.5 |
| 20260508110028 | 7 | 309 | 6.4 | 12.9 | 0.00 | 0.00 | 0.00 | 63 | 1012.7 |
| 20260508104530 | 7 | 305 | 9.7 | 14.5 | 0.00 | 0.00 | 0.00 | 62 | 1012.8 |
| 20260508103033 | 7 | 304 | 8.0 | 12.9 | 0.00 | 0.00 | 0.00 | 60 | 1013.0 |
| 20260508101539 | 7 | 302 | 6.4 | 14.5 | 0.00 | 0.00 | 0.00 | 59 | 1012.9 |
| 20260508100032 | 7 | 319 | 8.0 | 14.5 | 0.00 | 0.00 | 0.00 | 58 | 1012.8 |
| 20260508094529 | 6 | 304 | 9.7 | 14.5 | 0.00 | 0.00 | 0.00 | 57 | 1012.8 |
| 20260508093030 | 7 | 292 | 9.7 | 12.9 | 0.00 | 0.00 | 0.00 | 54 | 1012.7 |
| 20260508091531 | 8 | 302 | 6.4 | 16.1 | 0.00 | 0.00 | 0.00 | 51 | 1012.8 |
| 20260508090036 | 8 | 292 | 11.3 | 14.5 | 0.00 | 0.00 | 0.00 | 49 | 1012.8 |
| 20260508084530 | 9 | 315 | 6.4 | 12.9 | 0.00 | 0.00 | 0.00 | 48 | 1012.6 |
| 20260508083036 | 8 | 304 | 6.4 | 14.5 | 0.00 | 0.00 | 0.00 | 50 | 1012.7 |
| 20260508081530 | 9 | 323 | 8.0 | 12.9 | 0.00 | 0.00 | 0.00 | 50 | 1012.7 |
| 20260508080035 | 8 | 302 | 8.0 | 12.9 | 0.00 | 0.00 | 0.00 | 54 | 1012.7 |
| 20260508074529 | 8 | 283 | 4.8 | 12.9 | 0.00 | 0.00 | 0.00 | 55 | 1012.7 |
| 20260508073031 | 8 | 313 | 6.4 | 14.5 | 0.00 | 0.00 | 0.00 | 57 | 1012.6 |
| 20260508071530 | 8 | 279 | 11.3 | 24.1 | 0.00 | 0.00 | 0.00 | 58 | 1012.6 |
| 20260508070030 | 10 | 302 | 6.4 | 11.3 | 0.00 | 0.00 | 0.00 | 52 | 1012.3 |
| 20260508064539 | 10 | 290 | 6.4 | 9.7 | 0.00 | 0.00 | 0.00 | 55 | 1012.5 |
| 20260508063030 | 10 | 288 | 6.4 | 8.0 | 0.00 | 0.00 | 0.00 | 58 | 1012.5 |
| 20260508061534 | 10 | 286 | 6.4 | 9.7 | 0.00 | 0.00 | 0.00 | 58 | 1012.5 |
| 20260508060032 | 9 | 292 | 4.8 | 11.3 | 0.00 | 0.00 | 0.00 | 59 | 1012.3 |
| 20260508054533 | 10 | 314 | 3.2 | 6.4 | 0.00 | 0.00 | 0.00 | 59 | 1012.4 |
| 20260508053034 | 11 | 315 | 6.4 | 14.5 | 0.00 | 0.00 | 0.00 | 55 | 1012.4 |
| 20260508051528 | 12 | 277 | 11.3 | 16.1 | 0.00 | 0.00 | 0.00 | 55 | 1012.2 |
| 20260508050032 | 12 | 276 | 11.3 | 14.5 | 0.00 | 0.00 | 0.00 | 54 | 1012.3 |
| 20260508044532 | 13 | 267 | 9.7 | 17.7 | 0.00 | 0.00 | 0.00 | 52 | 1012.3 |
| 20260508043032 | 13 | 271 | 11.3 | 19.3 | 0.00 | 0.00 | 0.00 | 53 | 1012.3 |
| 20260508041531 | 13 | 242 | 11.3 | 20.9 | 0.00 | 0.00 | 0.00 | 52 | 1012.4 |
| 20260508040037 | 13 | 265 | 11.3 | 20.9 | 0.00 | 0.00 | 0.00 | 51 | 1012.5 |
| 20260508034531 | 14 | 260 | 14.5 | 22.5 | 0.00 | 0.00 | 0.00 | 50 | 1012.4 |
| 20260508033033 | 15 | 276 | 16.1 | 30.6 | 0.00 | 0.00 | 0.00 | 48 | 1012.6 |
| 20260508031533 | 15 | 288 | 14.5 | 20.9 | 0.00 | 0.00 | 0.00 | 49 | 1012.4 |
| 20260508030032 | 15 | 286 | 11.3 | 16.1 | 0.00 | 0.00 | 0.00 | 50 | 1012.0 |
| 20260508024542 | 14 | 279 | 9.7 | 14.5 | 0.00 | 0.00 | 0.00 | 50 | 1011.8 |
| 20260508023032 | 15 | 293 | 8.0 | 16.1 | 0.00 | 0.00 | 0.00 | 46 | 1011.7 |
| 20260508021534 | 16 | 278 | 6.4 | 17.7 | 0.00 | 0.00 | 0.00 | 45 | 1011.4 |
| 20260508020032 | 16 | 280 | 12.9 | 20.9 | 0.00 | 0.00 | 0.00 | 44 | 1011.4 |
| 20260508014545 | 17 | 265 | 16.1 | 25.7 | 0.00 | 0.00 | 0.00 | 44 | 1011.3 |
| 20260508013033 | 17 | 279 | 20.9 | 29.0 | 0.00 | 0.00 | 0.00 | 42 | 1011.2 |
| 20260508011531 | 17 | 279 | 17.7 | 37.0 | 0.00 | 0.00 | 0.00 | 40 | 1010.8 |
| 20260508010032 | 17 | 265 | 20.9 | 35.4 | 0.00 | 0.00 | 0.00 | 41 | 1010.9 |
| 20260508004531 | 18 | 274 | 17.7 | 29.0 | 0.00 | 0.00 | 0.00 | 36 | 1011.0 |
| 20260508003052 | 18 | 346 | 16.1 | 27.4 | 0.00 | 0.00 | 0.00 | 29 | 1010.9 |
| 20260508001531 | 18 | 320 | 17.7 | 29.0 | 0.00 | 0.00 | 0.00 | 30 | 1011.0 |
| 20260508000031 | 18 | 337 | 29.0 | 37.0 | 0.00 | 0.00 | 0.00 | 30 | 1010.9 |
| 20260507234532 | 19 | 360 | 17.7 | 32.2 | 0.00 | 0.00 | 0.00 | 31 | 1010.8 |
| 20260507233036 | 19 | 360 | 25.7 | 38.6 | 0.00 | 0.00 | 0.00 | 30 | 1010.7 |
| 20260507231532 | 19 | 338 | 17.7 | 33.8 | 0.00 | 0.00 | 0.00 | 32 | 1010.7 |
| 20260507230030 | 20 | 312 | 22.5 | 32.2 | 0.00 | 0.00 | 0.00 | 31 | 1010.7 |
| 20260507224533 | 19 | 319 | 24.1 | 37.0 | 0.00 | 0.00 | 0.00 | 32 | 1010.9 |
| 20260507223028 | 18 | 360 | 22.5 | 35.4 | 0.00 | 0.00 | 0.00 | 32 | 1011.0 |
| 20260507221532 | 18 | 323 | 22.5 | 38.6 | 0.00 | 0.00 | 0.00 | 33 | 1011.1 |
| 20260507220030 | 19 | 355 | 25.7 | 35.4 | 0.00 | 0.00 | 0.00 | 32 | 1011.1 |
| 20260507214530 | 19 | 295 | 19.3 | 35.4 | 0.00 | 0.00 | 0.00 | 33 | 1011.2 |
| 20260507213032 | 18 | 22 | 22.5 | 35.4 | 0.00 | 0.00 | 0.00 | 33 | 1011.2 |
| 20260507211529 | 19 | 355 | 17.7 | 33.8 | 0.00 | 0.00 | 0.00 | 31 | 1011.5 |
| 20260507210031 | 19 | 315 | 22.5 | 38.6 | 0.00 | 0.00 | 0.00 | 31 | 1011.4 |
| 20260507204532 | 18 | 5 | 24.1 | 40.2 | 0.00 | 0.00 | 0.00 | 30 | 1011.5 |
| 20260507203030 | 18 | 355 | 25.7 | 40.2 | 0.00 | 0.00 | 0.00 | 31 | 1011.6 |
| 20260507201531 | 18 | 355 | 27.4 | 37.0 | 0.00 | 0.00 | 0.00 | 32 | 1011.6 |
| 20260507200030 | 17 | 348 | 19.3 | 40.2 | 0.00 | 0.00 | 0.00 | 33 | 1011.5 |
| 20260507194536 | 17 | 360 | 29.0 | 38.6 | 0.00 | 0.00 | 0.00 | 33 | 1011.4 |
| 20260507193034 | 18 | 311 | 16.1 | 30.6 | 0.00 | 0.00 | 0.00 | 34 | 1011.2 |